sensor_id;sensor_type;location;lat;lon;timestamp;P1;durP1;ratioP1;P2;durP2;ratioP2
6531;SDS011;3299;42.004;24.868;2023-05-10T00:01:05;6.35;;;3.60;;
6531;SDS011;3299;42.004;24.868;2023-05-10T00:03:30;6.50;;;4.20;;
6531;SDS011;3299;42.004;24.868;2023-05-10T00:05:56;4.72;;;4.28;;
6531;SDS011;3299;42.004;24.868;2023-05-10T00:08:21;6.90;;;4.40;;
6531;SDS011;3299;42.004;24.868;2023-05-10T00:10:47;4.80;;;4.10;;
6531;SDS011;3299;42.004;24.868;2023-05-10T00:13:13;4.75;;;4.22;;
6531;SDS011;3299;42.004;24.868;2023-05-10T00:15:38;5.47;;;4.38;;
6531;SDS011;3299;42.004;24.868;2023-05-10T00:18:04;7.78;;;4.30;;
6531;SDS011;3299;42.004;24.868;2023-05-10T00:20:29;7.25;;;4.55;;
6531;SDS011;3299;42.004;24.868;2023-05-10T00:22:55;5.00;;;4.20;;
6531;SDS011;3299;42.004;24.868;2023-05-10T00:25:20;4.95;;;4.45;;
6531;SDS011;3299;42.004;24.868;2023-05-10T00:27:46;4.47;;;3.95;;
6531;SDS011;3299;42.004;24.868;2023-05-10T00:30:12;6.15;;;4.70;;
6531;SDS011;3299;42.004;24.868;2023-05-10T00:32:38;7.28;;;5.03;;
6531;SDS011;3299;42.004;24.868;2023-05-10T00:35:03;9.80;;;4.40;;
6531;SDS011;3299;42.004;24.868;2023-05-10T00:37:29;6.03;;;4.50;;
6531;SDS011;3299;42.004;24.868;2023-05-10T00:39:54;8.77;;;4.47;;
6531;SDS011;3299;42.004;24.868;2023-05-10T00:42:20;8.52;;;4.65;;
6531;SDS011;3299;42.004;24.868;2023-05-10T00:44:45;5.85;;;4.50;;
6531;SDS011;3299;42.004;24.868;2023-05-10T00:47:11;6.93;;;4.75;;
6531;SDS011;3299;42.004;24.868;2023-05-10T00:49:37;4.85;;;4.35;;
6531;SDS011;3299;42.004;24.868;2023-05-10T00:52:03;6.30;;;4.30;;
6531;SDS011;3299;42.004;24.868;2023-05-10T00:54:28;5.65;;;4.55;;
6531;SDS011;3299;42.004;24.868;2023-05-10T00:56:54;5.18;;;4.78;;
6531;SDS011;3299;42.004;24.868;2023-05-10T00:59:22;6.63;;;4.90;;
6531;SDS011;3299;42.004;24.868;2023-05-10T01:01:47;5.82;;;5.20;;
6531;SDS011;3299;42.004;24.868;2023-05-10T01:04:13;10.90;;;4.88;;
6531;SDS011;3299;42.004;24.868;2023-05-10T01:06:40;5.63;;;5.00;;
6531;SDS011;3299;42.004;24.868;2023-05-10T01:09:06;6.50;;;4.47;;
6531;SDS011;3299;42.004;24.868;2023-05-10T01:11:35;5.45;;;4.40;;
6531;SDS011;3299;42.004;24.868;2023-05-10T01:14:02;6.75;;;4.20;;
6531;SDS011;3299;42.004;24.868;2023-05-10T01:16:32;6.57;;;4.75;;
6531;SDS011;3299;42.004;24.868;2023-05-10T01:19:02;5.85;;;4.70;;
6531;SDS011;3299;42.004;24.868;2023-05-10T01:21:37;6.55;;;4.82;;
6531;SDS011;3299;42.004;24.868;2023-05-10T01:30:02;8.73;;;5.38;;
6531;SDS011;3299;42.004;24.868;2023-05-10T01:35:26;6.55;;;4.90;;
6531;SDS011;3299;42.004;24.868;2023-05-10T01:43:17;6.55;;;4.85;;
6531;SDS011;3299;42.004;24.868;2023-05-10T01:45:54;8.00;;;5.53;;
6531;SDS011;3299;42.004;24.868;2023-05-10T01:48:26;7.68;;;5.43;;
6531;SDS011;3299;42.004;24.868;2023-05-10T01:50:54;6.70;;;5.03;;
6531;SDS011;3299;42.004;24.868;2023-05-10T01:53:21;9.10;;;4.63;;
6531;SDS011;3299;42.004;24.868;2023-05-10T01:55:48;9.43;;;5.40;;
6531;SDS011;3299;42.004;24.868;2023-05-10T01:58:36;6.43;;;5.28;;
6531;SDS011;3299;42.004;24.868;2023-05-10T02:01:03;7.63;;;5.20;;
6531;SDS011;3299;42.004;24.868;2023-05-10T02:03:29;8.85;;;6.13;;
6531;SDS011;3299;42.004;24.868;2023-05-10T02:05:57;10.40;;;5.80;;
6531;SDS011;3299;42.004;24.868;2023-05-10T02:08:23;6.38;;;5.78;;
6531;SDS011;3299;42.004;24.868;2023-05-10T02:10:50;8.85;;;5.90;;
6531;SDS011;3299;42.004;24.868;2023-05-10T02:13:18;12.18;;;6.43;;
6531;SDS011;3299;42.004;24.868;2023-05-10T02:15:45;7.32;;;5.90;;
6531;SDS011;3299;42.004;24.868;2023-05-10T02:18:13;8.30;;;6.00;;
6531;SDS011;3299;42.004;24.868;2023-05-10T02:20:40;8.63;;;6.20;;
6531;SDS011;3299;42.004;24.868;2023-05-10T02:23:06;6.53;;;5.60;;
6531;SDS011;3299;42.004;24.868;2023-05-10T02:25:34;7.57;;;5.78;;
6531;SDS011;3299;42.004;24.868;2023-05-10T02:28:03;8.57;;;6.93;;
6531;SDS011;3299;42.004;24.868;2023-05-10T02:30:31;10.35;;;6.93;;
6531;SDS011;3299;42.004;24.868;2023-05-10T02:33:01;10.52;;;7.18;;
6531;SDS011;3299;42.004;24.868;2023-05-10T02:35:29;8.02;;;7.22;;
6531;SDS011;3299;42.004;24.868;2023-05-10T02:37:55;10.10;;;7.55;;
6531;SDS011;3299;42.004;24.868;2023-05-10T02:40:22;10.27;;;6.60;;
6531;SDS011;3299;42.004;24.868;2023-05-10T02:42:50;9.85;;;6.90;;
6531;SDS011;3299;42.004;24.868;2023-05-10T02:45:19;10.93;;;7.95;;
6531;SDS011;3299;42.004;24.868;2023-05-10T02:47:48;13.27;;;7.97;;
6531;SDS011;3299;42.004;24.868;2023-05-10T02:50:13;12.40;;;7.90;;
6531;SDS011;3299;42.004;24.868;2023-05-10T02:52:40;12.35;;;8.98;;
6531;SDS011;3299;42.004;24.868;2023-05-10T02:55:11;10.70;;;8.98;;
6531;SDS011;3299;42.004;24.868;2023-05-10T02:57:41;12.48;;;9.07;;
6531;SDS011;3299;42.004;24.868;2023-05-10T03:00:11;13.52;;;9.45;;
6531;SDS011;3299;42.004;24.868;2023-05-10T03:02:37;11.10;;;9.90;;
6531;SDS011;3299;42.004;24.868;2023-05-10T03:05:02;11.10;;;9.70;;
6531;SDS011;3299;42.004;24.868;2023-05-10T03:07:28;14.93;;;9.65;;
6531;SDS011;3299;42.004;24.868;2023-05-10T03:09:54;12.77;;;9.52;;
6531;SDS011;3299;42.004;24.868;2023-05-10T03:17:52;12.20;;;9.90;;
6531;SDS011;3299;42.004;24.868;2023-05-10T03:20:25;12.25;;;10.23;;
6531;SDS011;3299;42.004;24.868;2023-05-10T03:23:02;12.82;;;9.52;;
6531;SDS011;3299;42.004;24.868;2023-05-10T03:25:32;11.73;;;9.05;;
6531;SDS011;3299;42.004;24.868;2023-05-10T03:27:59;15.63;;;9.43;;
6531;SDS011;3299;42.004;24.868;2023-05-10T03:30:27;10.40;;;8.55;;
6531;SDS011;3299;42.004;24.868;2023-05-10T03:32:53;15.88;;;10.63;;
6531;SDS011;3299;42.004;24.868;2023-05-10T03:35:19;13.70;;;10.32;;
6531;SDS011;3299;42.004;24.868;2023-05-10T03:37:44;14.30;;;9.43;;
6531;SDS011;3299;42.004;24.868;2023-05-10T03:40:10;9.90;;;8.63;;
6531;SDS011;3299;42.004;24.868;2023-05-10T03:42:36;13.50;;;9.70;;
6531;SDS011;3299;42.004;24.868;2023-05-10T03:45:01;13.32;;;9.73;;
6531;SDS011;3299;42.004;24.868;2023-05-10T03:47:27;12.00;;;9.80;;
6531;SDS011;3299;42.004;24.868;2023-05-10T03:49:52;13.43;;;8.82;;
6531;SDS011;3299;42.004;24.868;2023-05-10T03:52:17;12.63;;;9.57;;
6531;SDS011;3299;42.004;24.868;2023-05-10T03:54:43;10.75;;;9.65;;
6531;SDS011;3299;42.004;24.868;2023-05-10T03:57:08;15.00;;;9.23;;
6531;SDS011;3299;42.004;24.868;2023-05-10T03:59:34;13.07;;;10.25;;
6531;SDS011;3299;42.004;24.868;2023-05-10T04:02:00;12.82;;;9.70;;
6531;SDS011;3299;42.004;24.868;2023-05-10T04:04:25;10.85;;;9.68;;
6531;SDS011;3299;42.004;24.868;2023-05-10T04:06:50;13.90;;;10.00;;
6531;SDS011;3299;42.004;24.868;2023-05-10T04:09:16;14.25;;;10.77;;
6531;SDS011;3299;42.004;24.868;2023-05-10T04:11:42;15.88;;;10.15;;
6531;SDS011;3299;42.004;24.868;2023-05-10T04:14:07;14.20;;;9.98;;
6531;SDS011;3299;42.004;24.868;2023-05-10T04:16:33;13.02;;;9.15;;
6531;SDS011;3299;42.004;24.868;2023-05-10T04:18:58;13.57;;;9.32;;
6531;SDS011;3299;42.004;24.868;2023-05-10T04:21:24;15.13;;;10.85;;
6531;SDS011;3299;42.004;24.868;2023-05-10T04:23:50;18.77;;;10.70;;
6531;SDS011;3299;42.004;24.868;2023-05-10T04:26:15;16.90;;;9.98;;
6531;SDS011;3299;42.004;24.868;2023-05-10T04:28:41;15.02;;;10.20;;
6531;SDS011;3299;42.004;24.868;2023-05-10T04:31:07;15.68;;;10.57;;
6531;SDS011;3299;42.004;24.868;2023-05-10T04:33:33;19.77;;;10.27;;
6531;SDS011;3299;42.004;24.868;2023-05-10T04:35:59;16.58;;;10.88;;
6531;SDS011;3299;42.004;24.868;2023-05-10T04:38:25;11.73;;;10.30;;
6531;SDS011;3299;42.004;24.868;2023-05-10T04:40:51;18.83;;;12.23;;
6531;SDS011;3299;42.004;24.868;2023-05-10T04:43:17;17.15;;;10.95;;
6531;SDS011;3299;42.004;24.868;2023-05-10T04:45:43;17.13;;;10.13;;
6531;SDS011;3299;42.004;24.868;2023-05-10T04:48:08;16.63;;;10.15;;
6531;SDS011;3299;42.004;24.868;2023-05-10T04:50:34;14.88;;;11.38;;
6531;SDS011;3299;42.004;24.868;2023-05-10T04:52:59;19.88;;;10.73;;
6531;SDS011;3299;42.004;24.868;2023-05-10T04:55:27;16.88;;;11.32;;
6531;SDS011;3299;42.004;24.868;2023-05-10T04:57:52;16.88;;;11.10;;
6531;SDS011;3299;42.004;24.868;2023-05-10T05:00:20;15.77;;;11.35;;
6531;SDS011;3299;42.004;24.868;2023-05-10T05:02:45;14.60;;;10.77;;
6531;SDS011;3299;42.004;24.868;2023-05-10T05:05:11;11.90;;;10.23;;
6531;SDS011;3299;42.004;24.868;2023-05-10T05:07:37;15.50;;;10.82;;
6531;SDS011;3299;42.004;24.868;2023-05-10T05:10:04;13.95;;;10.80;;
6531;SDS011;3299;42.004;24.868;2023-05-10T05:12:31;15.00;;;11.15;;
6531;SDS011;3299;42.004;24.868;2023-05-10T05:14:56;16.95;;;11.50;;
6531;SDS011;3299;42.004;24.868;2023-05-10T05:17:22;15.82;;;10.10;;
6531;SDS011;3299;42.004;24.868;2023-05-10T05:19:47;16.67;;;11.20;;
6531;SDS011;3299;42.004;24.868;2023-05-10T05:22:12;13.48;;;10.70;;
6531;SDS011;3299;42.004;24.868;2023-05-10T05:24:38;13.05;;;10.70;;
6531;SDS011;3299;42.004;24.868;2023-05-10T05:27:03;14.13;;;10.32;;
6531;SDS011;3299;42.004;24.868;2023-05-10T05:29:29;17.77;;;10.93;;
6531;SDS011;3299;42.004;24.868;2023-05-10T05:31:54;11.57;;;10.20;;
6531;SDS011;3299;42.004;24.868;2023-05-10T05:34:20;18.55;;;10.77;;
6531;SDS011;3299;42.004;24.868;2023-05-10T05:36:46;16.85;;;10.35;;
6531;SDS011;3299;42.004;24.868;2023-05-10T05:39:12;20.60;;;11.30;;
6531;SDS011;3299;42.004;24.868;2023-05-10T05:41:37;16.35;;;10.52;;
6531;SDS011;3299;42.004;24.868;2023-05-10T05:44:02;14.77;;;10.02;;
6531;SDS011;3299;42.004;24.868;2023-05-10T05:46:28;15.40;;;10.05;;
6531;SDS011;3299;42.004;24.868;2023-05-10T05:48:53;19.10;;;10.70;;
6531;SDS011;3299;42.004;24.868;2023-05-10T05:51:19;14.13;;;10.52;;
6531;SDS011;3299;42.004;24.868;2023-05-10T05:53:45;14.90;;;11.35;;
6531;SDS011;3299;42.004;24.868;2023-05-10T05:56:10;16.25;;;10.77;;
6531;SDS011;3299;42.004;24.868;2023-05-10T05:58:35;15.45;;;10.38;;
6531;SDS011;3299;42.004;24.868;2023-05-10T06:01:01;13.13;;;10.45;;
6531;SDS011;3299;42.004;24.868;2023-05-10T06:03:26;21.33;;;10.35;;
6531;SDS011;3299;42.004;24.868;2023-05-10T06:05:52;17.58;;;9.98;;
6531;SDS011;3299;42.004;24.868;2023-05-10T06:08:17;13.45;;;9.88;;
6531;SDS011;3299;42.004;24.868;2023-05-10T06:10:42;15.02;;;9.25;;
6531;SDS011;3299;42.004;24.868;2023-05-10T06:13:08;12.95;;;8.98;;
6531;SDS011;3299;42.004;24.868;2023-05-10T06:15:33;10.77;;;9.10;;
6531;SDS011;3299;42.004;24.868;2023-05-10T06:17:59;13.77;;;8.68;;
6531;SDS011;3299;42.004;24.868;2023-05-10T06:20:25;10.77;;;9.13;;
6531;SDS011;3299;42.004;24.868;2023-05-10T06:22:50;10.80;;;7.78;;
6531;SDS011;3299;42.004;24.868;2023-05-10T06:25:16;11.85;;;8.77;;
6531;SDS011;3299;42.004;24.868;2023-05-10T06:27:43;11.18;;;7.80;;
6531;SDS011;3299;42.004;24.868;2023-05-10T06:30:08;12.60;;;7.30;;
6531;SDS011;3299;42.004;24.868;2023-05-10T06:32:34;12.80;;;8.05;;
6531;SDS011;3299;42.004;24.868;2023-05-10T06:35:00;13.40;;;7.97;;
6531;SDS011;3299;42.004;24.868;2023-05-10T06:37:25;9.95;;;7.32;;
6531;SDS011;3299;42.004;24.868;2023-05-10T06:39:51;10.80;;;7.47;;
6531;SDS011;3299;42.004;24.868;2023-05-10T06:42:16;10.35;;;7.70;;
6531;SDS011;3299;42.004;24.868;2023-05-10T06:44:42;14.32;;;7.93;;
6531;SDS011;3299;42.004;24.868;2023-05-10T06:47:08;9.60;;;7.20;;
6531;SDS011;3299;42.004;24.868;2023-05-10T06:49:34;9.88;;;8.38;;
6531;SDS011;3299;42.004;24.868;2023-05-10T06:51:59;8.65;;;7.85;;
6531;SDS011;3299;42.004;24.868;2023-05-10T06:54:25;14.05;;;8.23;;
6531;SDS011;3299;42.004;24.868;2023-05-10T06:56:50;7.95;;;7.15;;
6531;SDS011;3299;42.004;24.868;2023-05-10T06:59:15;9.77;;;8.27;;
6531;SDS011;3299;42.004;24.868;2023-05-10T07:01:41;8.63;;;7.72;;
6531;SDS011;3299;42.004;24.868;2023-05-10T07:04:07;11.48;;;7.75;;
6531;SDS011;3299;42.004;24.868;2023-05-10T07:06:33;9.73;;;8.15;;
6531;SDS011;3299;42.004;24.868;2023-05-10T07:08:59;11.27;;;7.32;;
6531;SDS011;3299;42.004;24.868;2023-05-10T07:11:25;10.10;;;7.82;;
6531;SDS011;3299;42.004;24.868;2023-05-10T07:13:50;7.18;;;6.43;;
6531;SDS011;3299;42.004;24.868;2023-05-10T07:16:16;8.27;;;7.47;;
6531;SDS011;3299;42.004;24.868;2023-05-10T07:18:41;8.25;;;6.22;;
6531;SDS011;3299;42.004;24.868;2023-05-10T07:21:07;9.63;;;5.88;;
6531;SDS011;3299;42.004;24.868;2023-05-10T07:23:32;8.43;;;6.53;;
6531;SDS011;3299;42.004;24.868;2023-05-10T07:25:57;9.45;;;6.60;;
6531;SDS011;3299;42.004;24.868;2023-05-10T07:28:23;7.28;;;6.53;;
6531;SDS011;3299;42.004;24.868;2023-05-10T07:30:51;8.57;;;6.60;;
6531;SDS011;3299;42.004;24.868;2023-05-10T07:33:17;7.28;;;6.57;;
6531;SDS011;3299;42.004;24.868;2023-05-10T07:35:43;9.10;;;7.22;;
6531;SDS011;3299;42.004;24.868;2023-05-10T07:38:08;8.63;;;6.75;;
6531;SDS011;3299;42.004;24.868;2023-05-10T07:40:35;7.05;;;6.40;;
6531;SDS011;3299;42.004;24.868;2023-05-10T07:43:01;7.68;;;6.20;;
6531;SDS011;3299;42.004;24.868;2023-05-10T07:45:27;9.75;;;6.78;;
6531;SDS011;3299;42.004;24.868;2023-05-10T07:47:53;11.27;;;6.55;;
6531;SDS011;3299;42.004;24.868;2023-05-10T07:50:18;8.30;;;6.68;;
6531;SDS011;3299;42.004;24.868;2023-05-10T07:52:44;8.10;;;6.72;;
6531;SDS011;3299;42.004;24.868;2023-05-10T07:55:09;13.65;;;6.68;;
6531;SDS011;3299;42.004;24.868;2023-05-10T07:57:35;8.75;;;6.32;;
6531;SDS011;3299;42.004;24.868;2023-05-10T08:00:04;8.65;;;6.25;;
6531;SDS011;3299;42.004;24.868;2023-05-10T08:02:30;9.75;;;5.85;;
6531;SDS011;3299;42.004;24.868;2023-05-10T08:04:55;7.30;;;5.35;;
6531;SDS011;3299;42.004;24.868;2023-05-10T08:07:21;5.68;;;5.07;;
6531;SDS011;3299;42.004;24.868;2023-05-10T08:09:46;7.65;;;5.40;;
6531;SDS011;3299;42.004;24.868;2023-05-10T08:12:12;6.97;;;5.30;;
6531;SDS011;3299;42.004;24.868;2023-05-10T08:14:37;5.82;;;4.57;;
6531;SDS011;3299;42.004;24.868;2023-05-10T08:17:03;8.48;;;4.78;;
6531;SDS011;3299;42.004;24.868;2023-05-10T08:19:28;7.13;;;5.38;;
6531;SDS011;3299;42.004;24.868;2023-05-10T08:21:54;8.38;;;5.28;;
6531;SDS011;3299;42.004;24.868;2023-05-10T08:24:20;9.38;;;5.13;;
6531;SDS011;3299;42.004;24.868;2023-05-10T08:26:46;6.53;;;5.55;;
6531;SDS011;3299;42.004;24.868;2023-05-10T08:29:12;5.22;;;4.72;;
6531;SDS011;3299;42.004;24.868;2023-05-10T08:31:38;5.60;;;5.05;;
6531;SDS011;3299;42.004;24.868;2023-05-10T08:34:03;4.90;;;4.32;;
6531;SDS011;3299;42.004;24.868;2023-05-10T08:36:32;8.45;;;5.00;;
6531;SDS011;3299;42.004;24.868;2023-05-10T08:38:59;7.13;;;4.90;;
6531;SDS011;3299;42.004;24.868;2023-05-10T08:41:25;5.68;;;5.10;;
6531;SDS011;3299;42.004;24.868;2023-05-10T08:43:51;5.68;;;5.07;;
6531;SDS011;3299;42.004;24.868;2023-05-10T08:46:19;8.23;;;5.57;;
6531;SDS011;3299;42.004;24.868;2023-05-10T08:48:46;7.75;;;5.32;;
6531;SDS011;3299;42.004;24.868;2023-05-10T08:51:13;7.15;;;5.32;;
6531;SDS011;3299;42.004;24.868;2023-05-10T08:53:41;12.35;;;5.20;;
6531;SDS011;3299;42.004;24.868;2023-05-10T08:56:07;6.75;;;5.22;;
6531;SDS011;3299;42.004;24.868;2023-05-10T08:58:32;5.88;;;5.38;;
6531;SDS011;3299;42.004;24.868;2023-05-10T09:00:58;6.97;;;5.95;;
6531;SDS011;3299;42.004;24.868;2023-05-10T09:03:27;6.25;;;5.30;;
6531;SDS011;3299;42.004;24.868;2023-05-10T09:05:53;5.72;;;5.05;;
6531;SDS011;3299;42.004;24.868;2023-05-10T09:08:22;6.28;;;5.55;;
6531;SDS011;3299;42.004;24.868;2023-05-10T09:10:50;5.85;;;4.80;;
6531;SDS011;3299;42.004;24.868;2023-05-10T09:13:16;7.72;;;4.75;;
6531;SDS011;3299;42.004;24.868;2023-05-10T09:15:43;9.82;;;4.95;;
6531;SDS011;3299;42.004;24.868;2023-05-10T09:18:10;6.57;;;5.03;;
6531;SDS011;3299;42.004;24.868;2023-05-10T09:20:35;5.38;;;4.85;;
6531;SDS011;3299;42.004;24.868;2023-05-10T09:23:01;11.55;;;5.80;;
6531;SDS011;3299;42.004;24.868;2023-05-10T09:25:26;8.43;;;5.50;;
6531;SDS011;3299;42.004;24.868;2023-05-10T09:27:52;5.05;;;4.65;;
6531;SDS011;3299;42.004;24.868;2023-05-10T09:30:27;6.20;;;5.00;;
6531;SDS011;3299;42.004;24.868;2023-05-10T09:32:54;8.15;;;5.43;;
6531;SDS011;3299;42.004;24.868;2023-05-10T09:35:21;6.82;;;4.82;;
6531;SDS011;3299;42.004;24.868;2023-05-10T09:37:49;7.28;;;4.28;;
6531;SDS011;3299;42.004;24.868;2023-05-10T09:40:20;4.97;;;4.57;;
6531;SDS011;3299;42.004;24.868;2023-05-10T09:45:18;5.43;;;4.93;;
6531;SDS011;3299;42.004;24.868;2023-05-10T09:47:43;6.03;;;5.18;;
6531;SDS011;3299;42.004;24.868;2023-05-10T09:50:10;8.52;;;5.97;;
6531;SDS011;3299;42.004;24.868;2023-05-10T09:55:38;7.35;;;4.82;;
6531;SDS011;3299;42.004;24.868;2023-05-10T09:58:03;4.88;;;4.57;;
6531;SDS011;3299;42.004;24.868;2023-05-10T10:00:35;4.85;;;4.45;;
6531;SDS011;3299;42.004;24.868;2023-05-10T10:03:02;5.28;;;4.65;;
6531;SDS011;3299;42.004;24.868;2023-05-10T10:05:29;4.95;;;4.63;;
6531;SDS011;3299;42.004;24.868;2023-05-10T10:07:58;7.55;;;5.32;;
6531;SDS011;3299;42.004;24.868;2023-05-10T10:10:24;5.20;;;4.65;;
6531;SDS011;3299;42.004;24.868;2023-05-10T10:12:51;5.60;;;4.70;;
6531;SDS011;3299;42.004;24.868;2023-05-10T10:15:16;5.40;;;4.90;;
6531;SDS011;3299;42.004;24.868;2023-05-10T10:17:43;6.32;;;4.90;;
6531;SDS011;3299;42.004;24.868;2023-05-10T10:20:08;5.30;;;4.80;;
6531;SDS011;3299;42.004;24.868;2023-05-10T10:22:34;5.57;;;4.97;;
6531;SDS011;3299;42.004;24.868;2023-05-10T10:25:01;9.65;;;5.07;;
6531;SDS011;3299;42.004;24.868;2023-05-10T10:30:14;7.07;;;4.90;;
6531;SDS011;3299;42.004;24.868;2023-05-10T10:32:49;8.70;;;5.32;;
6531;SDS011;3299;42.004;24.868;2023-05-10T10:35:28;5.72;;;5.05;;
6531;SDS011;3299;42.004;24.868;2023-05-10T10:37:55;4.85;;;4.45;;
6531;SDS011;3299;42.004;24.868;2023-05-10T10:40:26;6.95;;;5.32;;
6531;SDS011;3299;42.004;24.868;2023-05-10T10:42:53;8.80;;;5.28;;
6531;SDS011;3299;42.004;24.868;2023-05-10T10:45:19;4.57;;;4.07;;
6531;SDS011;3299;42.004;24.868;2023-05-10T10:47:45;4.38;;;3.97;;
6531;SDS011;3299;42.004;24.868;2023-05-10T10:50:10;7.30;;;4.18;;
6531;SDS011;3299;42.004;24.868;2023-05-10T10:52:41;7.82;;;4.93;;
6531;SDS011;3299;42.004;24.868;2023-05-10T10:55:15;9.98;;;5.57;;
6531;SDS011;3299;42.004;24.868;2023-05-10T11:02:52;4.72;;;4.32;;
6531;SDS011;3299;42.004;24.868;2023-05-10T11:05:39;6.28;;;4.60;;
6531;SDS011;3299;42.004;24.868;2023-05-10T11:10:38;5.07;;;4.68;;
6531;SDS011;3299;42.004;24.868;2023-05-10T11:13:06;6.75;;;4.65;;
6531;SDS011;3299;42.004;24.868;2023-05-10T11:15:39;6.05;;;4.30;;
6531;SDS011;3299;42.004;24.868;2023-05-10T11:18:19;6.05;;;4.85;;
6531;SDS011;3299;42.004;24.868;2023-05-10T11:20:51;4.72;;;4.40;;
6531;SDS011;3299;42.004;24.868;2023-05-10T11:23:23;5.45;;;4.70;;
6531;SDS011;3299;42.004;24.868;2023-05-10T11:25:54;8.57;;;4.95;;
6531;SDS011;3299;42.004;24.868;2023-05-10T11:28:20;5.40;;;4.43;;
6531;SDS011;3299;42.004;24.868;2023-05-10T11:30:45;5.40;;;4.90;;
6531;SDS011;3299;42.004;24.868;2023-05-10T11:33:14;7.22;;;4.80;;
6531;SDS011;3299;42.004;24.868;2023-05-10T11:35:42;7.10;;;5.25;;
6531;SDS011;3299;42.004;24.868;2023-05-10T11:38:08;5.55;;;5.05;;
6531;SDS011;3299;42.004;24.868;2023-05-10T11:40:34;5.50;;;5.00;;
6531;SDS011;3299;42.004;24.868;2023-05-10T11:43:01;7.10;;;5.65;;
6531;SDS011;3299;42.004;24.868;2023-05-10T11:45:27;5.65;;;5.25;;
6531;SDS011;3299;42.004;24.868;2023-05-10T11:47:55;5.85;;;4.82;;
6531;SDS011;3299;42.004;24.868;2023-05-10T11:50:20;7.10;;;5.03;;
6531;SDS011;3299;42.004;24.868;2023-05-10T11:52:50;7.65;;;5.80;;
6531;SDS011;3299;42.004;24.868;2023-05-10T11:55:16;6.82;;;6.05;;
6531;SDS011;3299;42.004;24.868;2023-05-10T11:57:41;6.43;;;5.85;;
6531;SDS011;3299;42.004;24.868;2023-05-10T12:00:10;6.70;;;6.03;;
6531;SDS011;3299;42.004;24.868;2023-05-10T12:02:35;7.25;;;5.63;;
6531;SDS011;3299;42.004;24.868;2023-05-10T12:05:01;6.13;;;5.55;;
6531;SDS011;3299;42.004;24.868;2023-05-10T12:07:28;5.72;;;5.32;;
6531;SDS011;3299;42.004;24.868;2023-05-10T12:10:06;5.15;;;4.68;;
6531;SDS011;3299;42.004;24.868;2023-05-10T12:12:42;6.28;;;5.65;;
6531;SDS011;3299;42.004;24.868;2023-05-10T12:15:18;6.75;;;5.43;;
6531;SDS011;3299;42.004;24.868;2023-05-10T12:17:46;5.35;;;4.80;;
6531;SDS011;3299;42.004;24.868;2023-05-10T12:20:13;6.88;;;5.20;;
6531;SDS011;3299;42.004;24.868;2023-05-10T12:22:40;5.97;;;5.30;;
6531;SDS011;3299;42.004;24.868;2023-05-10T12:25:07;9.60;;;6.07;;
6531;SDS011;3299;42.004;24.868;2023-05-10T12:27:33;6.22;;;5.63;;
6531;SDS011;3299;42.004;24.868;2023-05-10T12:29:59;10.40;;;6.97;;
6531;SDS011;3299;42.004;24.868;2023-05-10T12:32:37;8.23;;;7.43;;
6531;SDS011;3299;42.004;24.868;2023-05-10T12:35:11;8.00;;;7.20;;
6531;SDS011;3299;42.004;24.868;2023-05-10T12:37:36;7.20;;;6.47;;
6531;SDS011;3299;42.004;24.868;2023-05-10T12:40:06;7.60;;;6.85;;
6531;SDS011;3299;42.004;24.868;2023-05-10T12:42:34;9.52;;;6.80;;
6531;SDS011;3299;42.004;24.868;2023-05-10T12:45:01;7.65;;;6.78;;
6531;SDS011;3299;42.004;24.868;2023-05-10T12:47:27;7.57;;;6.82;;
6531;SDS011;3299;42.004;24.868;2023-05-10T12:49:53;6.68;;;6.07;;
6531;SDS011;3299;42.004;24.868;2023-05-10T12:52:18;7.03;;;6.43;;
6531;SDS011;3299;42.004;24.868;2023-05-10T12:54:43;6.78;;;6.25;;
6531;SDS011;3299;42.004;24.868;2023-05-10T12:57:09;7.13;;;6.43;;
6531;SDS011;3299;42.004;24.868;2023-05-10T12:59:35;6.90;;;6.30;;
6531;SDS011;3299;42.004;24.868;2023-05-10T13:02:00;6.50;;;5.85;;
6531;SDS011;3299;42.004;24.868;2023-05-10T13:04:26;7.63;;;6.10;;
6531;SDS011;3299;42.004;24.868;2023-05-10T13:06:51;5.82;;;5.32;;
6531;SDS011;3299;42.004;24.868;2023-05-10T13:09:16;9.38;;;8.57;;
6531;SDS011;3299;42.004;24.868;2023-05-10T13:11:42;6.38;;;5.78;;
6531;SDS011;3299;42.004;24.868;2023-05-10T13:14:07;5.00;;;4.57;;
6531;SDS011;3299;42.004;24.868;2023-05-10T13:16:33;6.10;;;5.60;;
6531;SDS011;3299;42.004;24.868;2023-05-10T13:18:58;5.15;;;4.75;;
6531;SDS011;3299;42.004;24.868;2023-05-10T13:21:24;5.25;;;4.75;;
6531;SDS011;3299;42.004;24.868;2023-05-10T13:23:50;5.32;;;4.93;;
6531;SDS011;3299;42.004;24.868;2023-05-10T13:26:15;4.70;;;4.35;;
6531;SDS011;3299;42.004;24.868;2023-05-10T13:28:41;4.95;;;4.57;;
6531;SDS011;3299;42.004;24.868;2023-05-10T13:31:06;8.13;;;4.80;;
6531;SDS011;3299;42.004;24.868;2023-05-10T13:33:32;6.35;;;5.70;;
6531;SDS011;3299;42.004;24.868;2023-05-10T13:35:57;7.18;;;5.75;;
6531;SDS011;3299;42.004;24.868;2023-05-10T13:38:23;5.32;;;4.93;;
6531;SDS011;3299;42.004;24.868;2023-05-10T13:40:48;5.65;;;5.03;;
6531;SDS011;3299;42.004;24.868;2023-05-10T13:43:17;5.13;;;4.72;;
6531;SDS011;3299;42.004;24.868;2023-05-10T13:45:43;8.52;;;5.70;;
6531;SDS011;3299;42.004;24.868;2023-05-10T13:48:08;5.65;;;5.25;;
6531;SDS011;3299;42.004;24.868;2023-05-10T13:50:33;6.22;;;5.63;;
6531;SDS011;3299;42.004;24.868;2023-05-10T13:52:59;6.68;;;6.07;;
6531;SDS011;3299;42.004;24.868;2023-05-10T13:58:46;6.43;;;5.93;;
6531;SDS011;3299;42.004;24.868;2023-05-10T14:01:12;5.65;;;5.10;;
6531;SDS011;3299;42.004;24.868;2023-05-10T14:03:37;7.50;;;5.68;;
6531;SDS011;3299;42.004;24.868;2023-05-10T14:06:03;8.18;;;5.97;;
6531;SDS011;3299;42.004;24.868;2023-05-10T14:08:28;7.97;;;5.35;;
6531;SDS011;3299;42.004;24.868;2023-05-10T14:10:54;6.55;;;5.50;;
6531;SDS011;3299;42.004;24.868;2023-05-10T14:13:21;5.38;;;4.93;;
6531;SDS011;3299;42.004;24.868;2023-05-10T14:15:46;6.00;;;4.72;;
6531;SDS011;3299;42.004;24.868;2023-05-10T14:18:12;6.78;;;5.65;;
6531;SDS011;3299;42.004;24.868;2023-05-10T14:20:37;8.02;;;5.20;;
6531;SDS011;3299;42.004;24.868;2023-05-10T14:23:02;10.88;;;5.50;;
6531;SDS011;3299;42.004;24.868;2023-05-10T14:25:28;7.18;;;5.88;;
6531;SDS011;3299;42.004;24.868;2023-05-10T14:27:53;5.85;;;4.82;;
6531;SDS011;3299;42.004;24.868;2023-05-10T14:30:19;8.10;;;4.97;;
6531;SDS011;3299;42.004;24.868;2023-05-10T14:32:45;9.20;;;7.43;;
6531;SDS011;3299;42.004;24.868;2023-05-10T14:35:11;6.60;;;5.95;;
6531;SDS011;3299;42.004;24.868;2023-05-10T14:37:37;6.75;;;6.15;;
6531;SDS011;3299;42.004;24.868;2023-05-10T14:40:03;6.10;;;5.57;;
6531;SDS011;3299;42.004;24.868;2023-05-10T14:42:29;5.63;;;5.13;;
6531;SDS011;3299;42.004;24.868;2023-05-10T14:44:55;4.97;;;4.63;;
6531;SDS011;3299;42.004;24.868;2023-05-10T14:47:21;5.70;;;5.20;;
6531;SDS011;3299;42.004;24.868;2023-05-10T14:49:46;5.28;;;4.70;;
6531;SDS011;3299;42.004;24.868;2023-05-10T14:55:33;5.63;;;4.85;;
6531;SDS011;3299;42.004;24.868;2023-05-10T14:57:59;6.68;;;4.95;;
6531;SDS011;3299;42.004;24.868;2023-05-10T15:00:28;4.90;;;4.30;;
6531;SDS011;3299;42.004;24.868;2023-05-10T15:02:56;4.95;;;4.55;;
6531;SDS011;3299;42.004;24.868;2023-05-10T15:05:22;5.75;;;5.10;;
6531;SDS011;3299;42.004;24.868;2023-05-10T15:07:48;7.05;;;4.90;;
6531;SDS011;3299;42.004;24.868;2023-05-10T15:10:13;5.53;;;5.03;;
6531;SDS011;3299;42.004;24.868;2023-05-10T15:12:39;9.73;;;4.85;;
6531;SDS011;3299;42.004;24.868;2023-05-10T15:15:05;6.18;;;5.10;;
6531;SDS011;3299;42.004;24.868;2023-05-10T15:17:31;4.80;;;3.95;;
6531;SDS011;3299;42.004;24.868;2023-05-10T15:19:56;5.18;;;4.68;;
6531;SDS011;3299;42.004;24.868;2023-05-10T15:22:22;5.55;;;5.05;;
6531;SDS011;3299;42.004;24.868;2023-05-10T15:24:47;5.32;;;4.80;;
6531;SDS011;3299;42.004;24.868;2023-05-10T15:27:13;5.18;;;4.78;;
6531;SDS011;3299;42.004;24.868;2023-05-10T15:29:38;5.97;;;4.88;;
6531;SDS011;3299;42.004;24.868;2023-05-10T15:32:03;4.90;;;4.50;;
6531;SDS011;3299;42.004;24.868;2023-05-10T15:34:29;4.50;;;4.20;;